createdAt,value
2022-12-01T00:01:17.553Z,102784.06
2022-12-01T00:03:44.441Z,102777.41
2022-12-01T00:06:16.805Z,102784.31
2022-12-01T00:09:05.514Z,102775.88
2022-12-01T00:11:32.897Z,102772.81
2022-12-01T00:13:59.532Z,102780.00
2022-12-01T00:16:26.516Z,102773.84
2022-12-01T00:18:53.857Z,102769.22
2022-12-01T00:21:22.965Z,102779.00
2022-12-01T00:23:55.450Z,102777.09
2022-12-01T00:26:23.047Z,102774.50
2022-12-01T00:28:51.353Z,102771.69
2022-12-01T00:31:18.264Z,102773.25
2022-12-01T00:33:45.033Z,102776.63
2022-12-01T00:36:11.548Z,102772.00
2022-12-01T00:38:38.261Z,102777.06
2022-12-01T00:41:05.378Z,102779.66
2022-12-01T00:43:32.142Z,102774.47
2022-12-01T00:46:03.899Z,102776.28
2022-12-01T00:48:30.831Z,102770.09
2022-12-01T00:50:57.439Z,102775.28
2022-12-01T00:53:24.759Z,102764.13
2022-12-01T00:55:54.071Z,102769.19
2022-12-01T00:58:24.685Z,102773.69
2022-12-01T01:00:59.185Z,102778.84
2022-12-01T01:03:27.061Z,102777.06
2022-12-01T01:05:53.560Z,102778.75
2022-12-01T01:08:20.259Z,102775.28
2022-12-01T01:10:48.627Z,102781.31
2022-12-01T01:13:15.515Z,102779.53
2022-12-01T01:15:42.451Z,102782.91
2022-12-01T01:18:11.640Z,102786.41
2022-12-01T01:20:38.321Z,102786.31
2022-12-01T01:23:05.341Z,102792.34
2022-12-01T01:25:32.977Z,102793.38
2022-12-01T01:27:59.718Z,102787.28
2022-12-01T01:30:26.427Z,102792.72
2022-12-01T01:32:53.728Z,102796.28
2022-12-01T01:35:23.357Z,102792.72
2022-12-01T01:37:52.850Z,102800.72
2022-12-01T01:40:19.367Z,102799.00
2022-12-01T01:42:46.571Z,102787.88
2022-12-01T01:45:23.705Z,102795.78
2022-12-01T01:47:53.826Z,102792.38
2022-12-01T01:50:24.599Z,102794.84
2022-12-01T01:53:01.549Z,102803.63
2022-12-01T01:55:33.893Z,102797.69
2022-12-01T01:58:05.368Z,102795.97
2022-12-01T02:00:32.250Z,102799.47
2022-12-01T02:03:00.391Z,102801.28
2022-12-01T02:05:30.881Z,102806.56
2022-12-01T02:08:01.971Z,102804.09
2022-12-01T02:10:54.058Z,102800.72
2022-12-01T02:13:29.360Z,102795.53
2022-12-01T02:16:09.701Z,102793.97
2022-12-01T02:18:46.821Z,102802.63
2022-12-01T02:21:16.505Z,102802.53
2022-12-01T02:24:14.186Z,102793.97
2022-12-01T02:26:50.920Z,102785.41
2022-12-01T02:30:00.504Z,102789.81
2022-12-01T02:32:41.592Z,102785.41
2022-12-01T02:35:14.532Z,102780.25
2022-12-01T02:37:51.872Z,102785.41
2022-12-01T02:40:34.072Z,102781.03
2022-12-01T02:43:19.311Z,102782.16
2022-12-01T02:45:54.277Z,102781.28
2022-12-01T02:48:30.640Z,102794.09
2022-12-01T02:51:02.436Z,102791.50
2022-12-01T02:53:29.264Z,102795.66
2022-12-01T02:56:00.843Z,102792.19
2022-12-01T02:58:27.818Z,102793.97
2022-12-01T03:01:13.024Z,102797.44
2022-12-01T03:03:52.460Z,102792.19
2022-12-01T03:06:40.411Z,102796.69
2022-12-01T03:09:27.392Z,102792.38
2022-12-01T03:12:04.083Z,102789.59
2022-12-01T03:14:53.586Z,102795.66
2022-12-01T03:17:28.144Z,102796.81
2022-12-01T03:20:03.857Z,102798.34
2022-12-01T03:22:39.874Z,102793.97
2022-12-01T03:25:09.299Z,102799.38
2022-12-01T03:27:44.162Z,102786.56
2022-12-01T03:30:18.122Z,102791.81
2022-12-01T03:32:49.760Z,102796.91
2022-12-01T03:35:24.715Z,102796.00
2022-12-01T03:38:00.112Z,102798.47
2022-12-01T03:40:30.309Z,102799.59
2022-12-01T03:43:13.857Z,102790.94
2022-12-01T03:45:55.496Z,102792.75
2022-12-01T03:48:24.308Z,102799.81
2022-12-01T03:51:03.298Z,102799.81
2022-12-01T03:53:38.999Z,102799.72
2022-12-01T03:56:07.769Z,102798.03
2022-12-01T03:58:45.223Z,102791.94
2022-12-01T04:01:15.013Z,102803.22
2022-12-01T04:03:42.070Z,102791.06
2022-12-01T04:06:09.069Z,102798.94
2022-12-01T04:08:37.626Z,102789.47
2022-12-01T04:11:29.500Z,102797.00
2022-12-01T04:13:59.303Z,102789.25
2022-12-01T04:16:26.197Z,102797.13
2022-12-01T04:18:53.180Z,102789.25
2022-12-01T04:21:19.969Z,102795.09
2022-12-01T04:24:02.494Z,102800.16
2022-12-01T04:26:35.000Z,102797.56
2022-12-01T04:29:06.577Z,102801.97
2022-12-01T04:31:33.513Z,102796.00
2022-12-01T04:34:00.578Z,102801.19
2022-12-01T04:36:31.254Z,102807.91
2022-12-01T04:38:58.262Z,102806.34
2022-12-01T04:41:24.792Z,102814.91
2022-12-01T04:43:55.680Z,102808.72
2022-12-01T04:46:23.294Z,102802.84
2022-12-01T04:48:52.363Z,102809.94
2022-12-01T04:51:19.556Z,102805.69
2022-12-01T04:53:46.511Z,102803.22
2022-12-01T04:56:15.560Z,102798.72
2022-12-01T04:58:42.239Z,102804.56
2022-12-01T05:01:15.310Z,102800.28
2022-12-01T05:03:44.876Z,102805.44
2022-12-01T05:06:20.048Z,102809.94
2022-12-01T05:08:47.220Z,102803.53
2022-12-01T05:11:14.806Z,102800.94
2022-12-01T05:13:45.131Z,102806.13
2022-12-01T05:16:20.869Z,102805.88
2022-12-01T05:18:49.553Z,102808.47
2022-12-01T05:21:17.217Z,102812.97
2022-12-01T05:23:45.578Z,102811.41
2022-12-01T05:26:12.166Z,102806.25
2022-12-01T05:28:39.226Z,102812.44
2022-12-01T05:31:09.695Z,102815.81
2022-12-01T05:33:36.355Z,102813.22
2022-12-01T05:36:03.658Z,102811.31
2022-12-01T05:38:31.318Z,102812.34
2022-12-01T05:40:58.189Z,102809.50
2022-12-01T05:43:29.099Z,102814.69
2022-12-01T05:45:57.999Z,102822.09
2022-12-01T05:48:24.891Z,102816.78
2022-12-01T05:50:51.666Z,102818.38
2022-12-01T05:53:19.367Z,102825.22
2022-12-01T05:55:46.236Z,102810.03
2022-12-01T05:58:12.857Z,102818.94
2022-12-01T06:00:45.294Z,102810.38
2022-12-01T06:03:12.810Z,102802.25
2022-12-01T06:05:39.767Z,102807.13
2022-12-01T06:08:09.592Z,102807.56
2022-12-01T06:10:36.476Z,102794.25
2022-12-01T06:13:03.048Z,102797.72
2022-12-01T06:15:32.667Z,102806.81
2022-12-01T06:17:59.902Z,102807.88
2022-12-01T06:20:29.192Z,102812.59
2022-12-01T06:22:56.514Z,102814.56
2022-12-01T06:25:23.033Z,102813.06
2022-12-01T06:27:50.227Z,102821.03
2022-12-01T06:30:17.636Z,102824.66
2022-12-01T06:32:44.794Z,102824.31
2022-12-01T06:35:12.478Z,102826.53
2022-12-01T06:37:39.428Z,102824.47
2022-12-01T06:40:07.092Z,102818.94
2022-12-01T06:42:33.598Z,102820.38
2022-12-01T06:45:00.638Z,102819.09
2022-12-01T06:47:27.363Z,102817.97
2022-12-01T06:49:54.649Z,102832.31
2022-12-01T06:52:21.966Z,102832.94
2022-12-01T06:54:48.494Z,102832.59
2022-12-01T06:57:15.580Z,102829.75
2022-12-01T06:59:43.310Z,102839.84
2022-12-01T07:02:17.073Z,102831.84
2022-12-01T07:04:43.644Z,102843.75
2022-12-01T07:07:12.181Z,102840.13
2022-12-01T07:09:46.725Z,102843.34
2022-12-01T07:12:13.863Z,102848.91
2022-12-01T07:14:42.580Z,102857.44
2022-12-01T07:17:10.721Z,102848.78
2022-12-01T07:19:38.028Z,102855.66
2022-12-01T07:22:04.662Z,102866.59
2022-12-01T07:24:33.934Z,102857.84
2022-12-01T07:27:00.488Z,102865.59
2022-12-01T07:29:27.067Z,102874.88
2022-12-01T07:31:53.954Z,102881.47
2022-12-01T07:34:20.904Z,102883.78
2022-12-01T07:36:47.400Z,102881.19
2022-12-01T07:39:14.593Z,102879.94
2022-12-01T07:41:41.701Z,102886.09
2022-12-01T07:44:10.606Z,102887.16
2022-12-01T07:46:37.849Z,102885.84
2022-12-01T07:49:08.592Z,102886.75
2022-12-01T07:51:36.035Z,102892.41
2022-12-01T07:54:05.077Z,102892.81
2022-12-01T07:56:33.382Z,102888.69
2022-12-01T07:59:00.380Z,102889.94
2022-12-01T08:01:27.166Z,102889.44
2022-12-01T08:03:58.349Z,102888.13
2022-12-01T08:06:26.024Z,102903.00
2022-12-01T08:08:52.893Z,102895.59
2022-12-01T08:11:24.908Z,102887.09
2022-12-01T08:13:53.231Z,102893.78
2022-12-01T08:16:22.791Z,102887.03
2022-12-01T08:18:51.110Z,102899.69
2022-12-01T08:21:20.715Z,102897.34
2022-12-01T08:23:51.424Z,102911.78
2022-12-01T08:26:20.059Z,102907.88
2022-12-01T08:28:47.612Z,102900.63
2022-12-01T08:31:26.796Z,102905.03
2022-12-01T08:33:53.833Z,102907.31
2022-12-01T08:36:21.936Z,102921.50
2022-12-01T08:38:52.449Z,102919.16
2022-12-01T08:41:20.174Z,102914.50
2022-12-01T08:43:57.921Z,102917.34
2022-12-01T08:46:26.935Z,102913.44
2022-12-01T08:48:55.163Z,102914.56
2022-12-01T08:51:21.849Z,102918.19
2022-12-01T08:53:49.952Z,102917.63
2022-12-01T08:56:21.487Z,102915.44
2022-12-01T08:58:57.586Z,102926.09
2022-12-01T09:01:25.892Z,102919.50
2022-12-01T09:04:07.345Z,102914.03
2022-12-01T09:06:40.180Z,102912.81
2022-12-01T09:09:08.586Z,102913.41
2022-12-01T09:11:37.923Z,102913.88
2022-12-01T09:14:04.942Z,102914.59
2022-12-01T09:16:34.610Z,102907.84
2022-12-01T09:19:04.036Z,102902.91
2022-12-01T09:21:33.741Z,102910.88
2022-12-01T09:24:01.842Z,102912.72
2022-12-01T09:26:31.581Z,102913.06
2022-12-01T09:29:04.300Z,102904.53
2022-12-01T09:31:31.765Z,102909.97
2022-12-01T09:34:01.303Z,102908.59
2022-12-01T09:36:30.356Z,102913.38
2022-12-01T09:38:58.390Z,102910.44
2022-12-01T09:41:42.237Z,102917.03
2022-12-01T09:44:15.788Z,102913.78
2022-12-01T09:47:07.424Z,102915.88
2022-12-01T09:49:55.704Z,102904.81
2022-12-01T09:52:25.279Z,102898.88
2022-12-01T09:54:55.479Z,102891.25
2022-12-01T09:57:38.006Z,102898.66
2022-12-01T10:00:15.069Z,102890.25
2022-12-01T10:02:56.570Z,102885.06
2022-12-01T10:05:27.809Z,102887.25
2022-12-01T10:08:09.260Z,102879.34
2022-12-01T10:10:45.017Z,102879.78
2022-12-01T10:13:20.586Z,102885.97
2022-12-01T10:15:53.385Z,102886.59
2022-12-01T10:18:28.974Z,102885.88
2022-12-01T10:21:07.796Z,102881.06
2022-12-01T10:23:56.111Z,102891.44
2022-12-01T10:26:42.665Z,102884.16
2022-12-01T10:29:24.971Z,102887.66
2022-12-01T10:31:55.795Z,102882.91
2022-12-01T10:34:43.493Z,102877.88
2022-12-01T10:37:18.896Z,102881.38
2022-12-01T10:39:50.226Z,102885.31
2022-12-01T10:42:30.942Z,102889.56
2022-12-01T10:45:02.826Z,102882.03
2022-12-01T10:47:29.635Z,102885.97
2022-12-01T10:49:56.480Z,102886.44
2022-12-01T10:52:41.735Z,102883.75
2022-12-01T10:55:23.552Z,102887.91
2022-12-01T10:57:51.541Z,102883.47
2022-12-01T11:00:51.390Z,102877.38
2022-12-01T11:03:22.071Z,102881.44
2022-12-01T11:05:55.149Z,102875.78
2022-12-01T11:08:29.588Z,102875.78
2022-12-01T11:10:57.219Z,102872.75
2022-12-01T11:13:30.860Z,102870.16
2022-12-01T11:16:03.884Z,102871.47
2022-12-01T11:18:37.603Z,102869.22
2022-12-01T11:21:09.506Z,102860.66
2022-12-01T11:23:50.463Z,102860.00
2022-12-01T11:26:34.482Z,102855.19
2022-12-01T11:29:08.835Z,102854.72
2022-12-01T11:31:41.738Z,102849.38
2022-12-01T11:34:30.524Z,102849.66
2022-12-01T11:37:01.716Z,102852.53
2022-12-01T11:39:39.727Z,102838.13
2022-12-01T11:42:13.943Z,102843.16
2022-12-01T11:44:51.933Z,102838.53
2022-12-01T11:47:29.828Z,102846.81
2022-12-01T11:50:04.870Z,102843.34
2022-12-01T11:52:33.985Z,102837.13
2022-12-01T11:55:11.007Z,102828.75
2022-12-01T11:57:47.941Z,102825.66
2022-12-01T12:00:23.744Z,102838.63
2022-12-01T12:03:07.119Z,102827.06
2022-12-01T12:05:45.918Z,102830.00
2022-12-01T12:08:32.530Z,102828.97
2022-12-01T12:11:21.082Z,102821.28
2022-12-01T12:14:25.068Z,102817.28
2022-12-01T12:17:10.258Z,102819.28
2022-12-01T12:20:09.181Z,102805.34
2022-12-01T12:22:55.927Z,102804.22
2022-12-01T12:25:30.405Z,102808.72
2022-12-01T12:28:23.065Z,102811.31
2022-12-01T12:31:03.101Z,102810.50
2022-12-01T12:33:29.801Z,102810.22
2022-12-01T12:36:27.176Z,102811.69
2022-12-01T12:39:02.797Z,102805.28
2022-12-01T12:41:52.413Z,102809.09
2022-12-01T12:44:50.267Z,102800.72
2022-12-01T12:47:16.581Z,102798.41
2022-12-01T12:49:56.112Z,102800.16
2022-12-01T12:52:33.673Z,102795.25
2022-12-01T12:55:23.482Z,102799.53
2022-12-01T12:57:55.459Z,102794.38
2022-12-01T13:00:25.685Z,102797.28
2022-12-01T13:03:33.594Z,102792.91
2022-12-01T13:06:10.059Z,102782.81
2022-12-01T13:08:48.001Z,102790.09
2022-12-01T13:11:30.711Z,102789.28
2022-12-01T13:14:22.168Z,102785.28
2022-12-01T13:16:51.952Z,102785.16
2022-12-01T13:19:30.035Z,102781.28
2022-12-01T13:21:57.666Z,102781.44
2022-12-01T13:24:28.968Z,102788.00
2022-12-01T13:27:06.699Z,102778.44
2022-12-01T13:29:44.019Z,102780.31
2022-12-01T13:32:25.585Z,102784.94
2022-12-01T13:34:52.325Z,102779.94
2022-12-01T13:37:30.102Z,102777.13
2022-12-01T13:40:12.370Z,102774.94
2022-12-01T13:42:41.020Z,102772.63
2022-12-01T13:45:18.806Z,102767.34
2022-12-01T13:47:56.169Z,102763.16
2022-12-01T13:50:58.301Z,102770.25
2022-12-01T13:53:27.634Z,102773.44
2022-12-01T13:56:03.388Z,102767.94
2022-12-01T13:58:52.537Z,102771.75
2022-12-01T14:01:23.240Z,102765.16
2022-12-01T14:03:56.891Z,102772.84
2022-12-01T14:06:39.405Z,102765.34
2022-12-01T14:09:23.823Z,102773.34
2022-12-01T14:12:06.191Z,102763.28
2022-12-01T14:14:39.217Z,102764.47
2022-12-01T14:17:06.079Z,102757.06
2022-12-01T14:19:44.453Z,102755.06
2022-12-01T14:22:32.887Z,102757.25
2022-12-01T14:25:00.662Z,102751.25
2022-12-01T14:27:42.532Z,102757.13
2022-12-01T14:30:40.694Z,102760.09
2022-12-01T14:33:48.234Z,102761.38
2022-12-01T14:36:42.877Z,102767.97
2022-12-01T14:39:15.576Z,102766.72
2022-12-01T14:41:48.075Z,102765.50
2022-12-01T14:44:27.571Z,102771.28
2022-12-01T14:47:05.554Z,102769.28
2022-12-01T14:49:43.017Z,102771.41
2022-12-01T14:52:28.803Z,102776.31
2022-12-01T14:55:01.927Z,102771.81
2022-12-01T14:57:34.515Z,102775.63
2022-12-01T15:00:11.285Z,102763.03
2022-12-01T15:03:20.178Z,102766.13
2022-12-01T15:05:47.105Z,102765.69
2022-12-01T15:11:26.136Z,102777.06
2022-12-01T15:13:55.904Z,102772.34
2022-12-01T15:16:25.598Z,102773.72
2022-12-01T15:18:52.844Z,102768.09
2022-12-01T15:21:31.466Z,102777.34
2022-12-01T15:24:20.224Z,102765.03
2022-12-01T15:26:49.964Z,102773.50
2022-12-01T15:29:23.629Z,102766.16
2022-12-01T15:31:55.787Z,102769.09
2022-12-01T15:34:36.479Z,102769.66
2022-12-01T15:37:05.673Z,102778.69
2022-12-01T15:39:49.690Z,102770.34
2022-12-01T15:42:30.284Z,102775.06
2022-12-01T15:45:22.593Z,102778.22
2022-12-01T15:47:53.796Z,102781.13
2022-12-01T15:50:44.487Z,102780.13
2022-12-01T15:53:27.331Z,102783.03
2022-12-01T15:55:59.097Z,102781.75
2022-12-01T15:58:34.926Z,102786.84
2022-12-01T16:01:05.236Z,102790.09
2022-12-01T16:03:45.510Z,102789.09
2022-12-01T16:06:13.623Z,102782.88
2022-12-01T16:08:40.714Z,102789.63
2022-12-01T16:11:19.031Z,102786.94
2022-12-01T16:13:48.688Z,102791.19
2022-12-01T16:16:30.066Z,102789.63
2022-12-01T16:19:07.536Z,102787.16
2022-12-01T16:21:43.325Z,102782.75
2022-12-01T16:24:35.956Z,102788.72
2022-12-01T16:27:09.525Z,102779.84
2022-12-01T16:30:08.653Z,102795.38
2022-12-01T16:32:43.027Z,102782.06
2022-12-01T16:35:24.316Z,102786.13
2022-12-01T16:37:50.974Z,102790.25
2022-12-01T16:40:18.945Z,102794.50
2022-12-01T16:42:46.722Z,102795.31
2022-12-01T16:45:14.923Z,102799.69
2022-12-01T16:47:42.755Z,102793.63
2022-12-01T16:50:14.955Z,102790.25
2022-12-01T16:52:45.018Z,102791.06
2022-12-01T16:55:25.813Z,102783.16
2022-12-01T16:57:52.986Z,102785.75
2022-12-01T17:00:20.232Z,102779.56
2022-12-01T17:02:46.840Z,102788.88
2022-12-01T17:05:13.902Z,102783.47
2022-12-01T17:07:41.055Z,102785.69
2022-12-01T17:10:08.369Z,102780.41
2022-12-01T17:12:35.334Z,102781.31
2022-12-01T17:15:02.251Z,102780.31
2022-12-01T17:17:29.863Z,102784.44
2022-12-01T17:19:57.350Z,102779.28
2022-12-01T17:22:24.067Z,102785.25
2022-12-01T17:24:51.375Z,102787.72
2022-12-01T17:27:18.161Z,102785.00
2022-12-01T17:29:46.351Z,102783.22
2022-12-01T17:32:14.253Z,102780.38
2022-12-01T17:34:43.243Z,102779.47
2022-12-01T17:37:09.950Z,102781.38
2022-12-01T17:39:37.288Z,102786.78
2022-12-01T17:42:05.054Z,102779.28
2022-12-01T17:44:34.304Z,102776.69
2022-12-01T17:47:00.988Z,102775.66
2022-12-01T17:49:27.683Z,102774.66
2022-12-01T17:51:54.775Z,102773.06
2022-12-01T17:54:24.053Z,102775.66
2022-12-01T17:56:51.672Z,102775.34
2022-12-01T17:59:18.288Z,102767.69
2022-12-01T18:01:48.234Z,102783.22
2022-12-01T18:04:15.371Z,102778.03
2022-12-01T18:06:43.264Z,102771.03
2022-12-01T18:09:11.100Z,102776.00
2022-12-01T18:11:40.092Z,102774.16
2022-12-01T18:14:09.130Z,102776.63
2022-12-01T18:16:39.179Z,102775.75
2022-12-01T18:19:06.108Z,102765.16
2022-12-01T18:21:32.659Z,102773.72
2022-12-01T18:24:02.906Z,102777.97
2022-12-01T18:26:31.949Z,102764.94
2022-12-01T18:29:01.110Z,102768.19
2022-12-01T18:31:29.004Z,102779.97
2022-12-01T18:33:59.223Z,102777.13
2022-12-01T18:36:27.029Z,102775.22
2022-12-01T18:38:54.858Z,102774.06
2022-12-01T18:41:25.515Z,102774.72
2022-12-01T18:43:52.338Z,102781.34
2022-12-01T18:46:24.199Z,102777.59
2022-12-01T18:49:00.479Z,102776.72
2022-12-01T18:51:27.153Z,102783.44
2022-12-01T18:53:56.722Z,102779.59
2022-12-01T18:56:23.517Z,102789.13
2022-12-01T18:59:07.833Z,102778.81
2022-12-01T19:01:46.082Z,102781.25
2022-12-01T19:04:13.493Z,102777.78
2022-12-01T19:06:41.969Z,102776.75
2022-12-01T19:09:12.379Z,102780.88
2022-12-01T19:11:40.907Z,102782.72
2022-12-01T19:14:12.012Z,102782.72
2022-12-01T19:16:40.123Z,102772.38
2022-12-01T19:19:07.154Z,102781.13
2022-12-01T19:21:33.693Z,102784.75
2022-12-01T19:24:02.181Z,102787.69
2022-12-01T19:26:29.337Z,102784.34
2022-12-01T19:28:56.357Z,102780.06
2022-12-01T19:31:24.905Z,102782.78
2022-12-01T19:33:53.311Z,102777.84
2022-12-01T19:36:22.985Z,102773.59
2022-12-01T19:38:49.772Z,102778.97
2022-12-01T19:41:20.971Z,102780.81
2022-12-01T19:43:51.365Z,102768.00
2022-12-01T19:46:22.854Z,102776.91
2022-12-01T19:48:55.621Z,102772.75
2022-12-01T19:51:28.753Z,102771.19
2022-12-01T19:53:55.873Z,102771.44
2022-12-01T19:56:23.803Z,102771.56
2022-12-01T19:58:50.869Z,102778.50
2022-12-01T20:01:19.019Z,102777.84
2022-12-01T20:03:51.076Z,102777.09
2022-12-01T20:06:23.765Z,102778.88
2022-12-01T20:08:50.572Z,102773.72
2022-12-01T20:11:17.736Z,102773.72
2022-12-01T20:13:50.579Z,102769.44
2022-12-01T20:16:20.265Z,102772.91
2022-12-01T20:18:50.508Z,102774.03
2022-12-01T20:21:22.741Z,102776.75
2022-12-01T20:24:00.922Z,102768.38
2022-12-01T20:26:31.598Z,102775.34
2022-12-01T20:29:01.741Z,102769.25
2022-12-01T20:31:30.223Z,102776.47
2022-12-01T20:34:04.630Z,102773.06
2022-12-01T20:36:34.077Z,102774.00
2022-12-01T20:39:04.493Z,102770.72
2022-12-01T20:41:31.183Z,102774.13
2022-12-01T20:44:01.243Z,102780.19
2022-12-01T20:46:32.262Z,102787.94
2022-12-01T20:48:58.886Z,102784.44
2022-12-01T20:51:25.391Z,102784.44
2022-12-01T20:54:26.341Z,102779.28
2022-12-01T20:56:42.490Z,102779.41
2022-12-01T20:59:09.268Z,102769.97
2022-12-01T21:01:37.299Z,102769.31
2022-12-01T21:04:06.483Z,102760.63
2022-12-01T21:06:33.047Z,102775.34
2022-12-01T21:09:01.296Z,102762.31
2022-12-01T21:11:59.040Z,102766.47
2022-12-01T21:14:35.944Z,102766.34
2022-12-01T21:17:18.065Z,102762.66
2022-12-01T21:19:51.971Z,102765.22
2022-12-01T21:22:20.149Z,102745.31
2022-12-01T21:24:51.535Z,102753.06
2022-12-01T21:27:19.023Z,102757.34
2022-12-01T21:29:48.336Z,102753.06
2022-12-01T21:32:23.849Z,102752.19
2022-12-01T21:34:51.215Z,102744.19
2022-12-01T21:37:28.597Z,102735.41
2022-12-01T21:39:57.567Z,102730.34
2022-12-01T21:42:33.019Z,102736.19
2022-12-01T21:45:00.282Z,102737.22
2022-12-01T21:47:30.243Z,102729.34
2022-12-01T21:49:58.313Z,102733.50
2022-12-01T21:52:30.732Z,102738.00
2022-12-01T21:55:23.876Z,102734.28
2022-12-01T21:57:53.014Z,102733.50
2022-12-01T22:00:31.641Z,102723.94
2022-12-01T22:03:16.078Z,102731.69
2022-12-01T22:06:06.887Z,102731.44
2022-12-01T22:08:40.388Z,102725.41
2022-12-01T22:11:27.039Z,102731.31
2022-12-01T22:14:09.060Z,102731.31
2022-12-01T22:16:38.105Z,102723.56
2022-12-01T22:19:23.116Z,102729.78
2022-12-01T22:21:53.595Z,102737.53
2022-12-01T22:24:48.089Z,102726.28
2022-12-01T22:27:28.459Z,102711.69
2022-12-01T22:30:02.080Z,102728.19
2022-12-01T22:32:48.800Z,102712.34
2022-12-01T22:35:22.506Z,102712.56
2022-12-01T22:38:09.292Z,102716.31
2022-12-01T22:41:15.387Z,102713.06
2022-12-01T22:43:48.161Z,102718.34
2022-12-01T22:46:24.120Z,102715.88
2022-12-01T22:48:56.766Z,102716.00
2022-12-01T22:51:25.195Z,102713.53
2022-12-01T22:54:15.060Z,102712.63
2022-12-01T22:56:46.771Z,102709.25
2022-12-01T22:59:22.694Z,102716.44
2022-12-01T23:01:57.076Z,102712.97
2022-12-01T23:04:27.596Z,102716.56
2022-12-01T23:06:59.354Z,102713.09
2022-12-01T23:09:51.848Z,102715.78
2022-12-01T23:12:29.129Z,102720.19
2022-12-01T23:14:59.740Z,102714.34
2022-12-01T23:17:33.164Z,102706.59
2022-12-01T23:20:10.885Z,102701.28
2022-12-01T23:22:39.409Z,102712.75
2022-12-01T23:25:15.273Z,102705.00
2022-12-01T23:27:43.669Z,102703.31
2022-12-01T23:30:17.609Z,102710.16
2022-12-01T23:32:48.430Z,102708.38
2022-12-01T23:35:22.334Z,102699.06
2022-12-01T23:37:49.511Z,102704.00
2022-12-01T23:40:35.071Z,102701.41
2022-12-01T23:43:20.786Z,102697.91
2022-12-01T23:45:51.321Z,102700.50
2022-12-01T23:48:34.103Z,102691.88
2022-12-01T23:51:01.155Z,102690.16
2022-12-01T23:53:33.090Z,102695.44
2022-12-01T23:56:05.977Z,102691.97
2022-12-01T23:58:34.820Z,102691.06
